createdAt,value
2019-05-03T00:01:04.375Z,95.20
2019-05-03T00:03:33.820Z,95.50
2019-05-03T00:06:06.234Z,95.40
2019-05-03T00:08:35.708Z,95.50
2019-05-03T00:11:05.153Z,95.10
2019-05-03T00:13:34.753Z,95.30
2019-05-03T00:16:05.893Z,95.60
2019-05-03T00:18:35.501Z,95.60
2019-05-03T00:21:04.958Z,95.50
2019-05-03T00:23:34.418Z,95.40
2019-05-03T00:26:03.934Z,95.20
2019-05-03T00:28:33.385Z,95.30
2019-05-03T00:31:02.834Z,95.60
2019-05-03T00:33:32.297Z,96.10
2019-05-03T00:36:19.551Z,96.10
2019-05-03T00:38:52.466Z,95.70
2019-05-03T00:41:22.021Z,95.50
2019-05-03T00:43:51.851Z,95.40
2019-05-03T00:46:22.529Z,95.40
2019-05-03T00:48:52.436Z,95.60
2019-05-03T00:51:22.598Z,95.80
2019-05-03T00:53:53.043Z,96.20
2019-05-03T00:56:22.733Z,96.60
2019-05-03T00:58:56.920Z,97.00
2019-05-03T01:01:26.350Z,97.30
2019-05-03T01:03:55.832Z,97.90
2019-05-03T01:06:25.288Z,98.10
2019-05-03T01:08:54.743Z,98.10
2019-05-03T01:11:24.555Z,97.90
2019-05-03T01:13:54.405Z,98.20
2019-05-03T01:16:25.339Z,98.00
2019-05-03T01:18:54.824Z,98.00
2019-05-03T01:21:24.290Z,97.90
2019-05-03T01:23:53.724Z,97.70
2019-05-03T01:26:23.190Z,97.50
2019-05-03T01:28:52.628Z,98.40
2019-05-03T01:31:22.732Z,98.90
2019-05-03T01:33:53.499Z,98.90
2019-05-03T01:36:23.070Z,98.40
2019-05-03T01:38:53.089Z,99.40
2019-05-03T01:41:24.004Z,99.90
2019-05-03T01:43:53.469Z,99.20
2019-05-03T01:46:23.101Z,99.70
2019-05-03T01:49:01.598Z,99.90
2019-05-03T01:51:49.119Z,99.90
2019-05-03T01:54:18.584Z,99.90
2019-05-03T01:56:57.709Z,99.90
2019-05-03T01:59:19.077Z,99.90
2019-05-03T02:01:51.644Z,99.90
2019-05-03T02:04:34.785Z,99.90
2019-05-03T02:07:04.593Z,99.90
2019-05-03T02:09:34.047Z,99.90
2019-05-03T02:12:03.486Z,99.70
2019-05-03T02:14:32.926Z,99.90
2019-05-03T02:17:02.405Z,99.90
2019-05-03T02:19:32.686Z,99.90
2019-05-03T02:22:02.894Z,99.90
2019-05-03T02:24:32.886Z,99.90
2019-05-03T02:27:02.434Z,99.90
2019-05-03T02:29:32.537Z,99.90
2019-05-03T02:32:03.320Z,99.90
2019-05-03T02:34:33.012Z,99.60
2019-05-03T02:37:03.259Z,99.90
2019-05-03T02:39:33.627Z,99.90
2019-05-03T02:42:10.335Z,99.90
2019-05-03T02:44:35.742Z,99.90
2019-05-03T02:47:20.257Z,99.90
2019-05-03T02:49:51.339Z,99.90
2019-05-03T02:52:37.223Z,99.90
2019-05-03T02:55:08.803Z,99.90
2019-05-03T02:57:38.397Z,99.80
2019-05-03T03:00:10.098Z,99.90
2019-05-03T03:02:40.234Z,99.90
2019-05-03T03:05:10.401Z,99.90
2019-05-03T03:07:45.730Z,99.90
2019-05-03T03:10:35.498Z,99.90
2019-05-03T03:13:06.089Z,99.90
2019-05-03T03:15:38.658Z,99.90
2019-05-03T03:18:09.591Z,99.90
2019-05-03T03:20:39.862Z,99.90
2019-05-03T03:23:17.335Z,99.90
2019-05-03T03:25:46.349Z,99.90
2019-05-03T03:28:18.927Z,99.90
2019-05-03T03:31:20.354Z,99.90
2019-05-03T03:33:49.734Z,99.90
2019-05-03T03:36:50.301Z,99.90
2019-05-03T03:38:50.821Z,99.90
2019-05-03T03:41:20.987Z,99.90
2019-05-03T03:43:55.828Z,99.90
2019-05-03T03:46:26.586Z,99.90
2019-05-03T03:48:57.810Z,99.90
2019-05-03T03:51:30.336Z,99.90
2019-05-03T03:54:01.245Z,99.90
2019-05-03T03:56:32.313Z,99.90
2019-05-03T03:59:02.509Z,99.90
2019-05-03T04:01:32.148Z,99.90
2019-05-03T04:04:01.686Z,99.90
2019-05-03T04:06:46.391Z,99.90
2019-05-03T04:09:16.066Z,99.90
2019-05-03T04:11:46.655Z,99.90
2019-05-03T04:14:18.199Z,99.90
2019-05-03T04:16:56.404Z,99.80
2019-05-03T04:19:39.879Z,99.80
2019-05-03T04:22:09.498Z,99.60
2019-05-03T04:24:38.940Z,99.60
2019-05-03T04:27:18.556Z,99.60
2019-05-03T04:29:40.493Z,99.00
2019-05-03T04:32:10.457Z,98.50
2019-05-03T04:34:39.890Z,98.10
2019-05-03T04:37:09.300Z,97.70
2019-05-03T04:39:52.299Z,97.10
2019-05-03T04:42:21.761Z,96.70
2019-05-03T04:44:52.143Z,97.30
2019-05-03T04:47:21.604Z,97.70
2019-05-03T04:49:51.060Z,97.70
2019-05-03T04:52:20.524Z,97.60
2019-05-03T04:54:51.624Z,97.00
2019-05-03T04:57:34.832Z,97.90
2019-05-03T04:59:52.150Z,98.00
2019-05-03T05:02:21.598Z,98.00
2019-05-03T05:04:51.038Z,98.00
2019-05-03T05:07:20.491Z,97.90
2019-05-03T05:09:49.969Z,96.50
2019-05-03T05:12:19.430Z,94.80
2019-05-03T05:14:48.902Z,94.20
2019-05-03T05:17:20.150Z,95.10
2019-05-03T05:19:51.253Z,94.30
2019-05-03T05:22:28.564Z,94.70
2019-05-03T05:24:59.170Z,95.50
2019-05-03T05:27:34.625Z,94.50
2019-05-03T05:30:06.575Z,95.60
2019-05-03T05:32:36.038Z,96.30
2019-05-03T05:35:06.642Z,94.80
2019-05-03T05:37:36.108Z,94.80
2019-05-03T05:40:24.977Z,94.80
2019-05-03T05:42:54.630Z,94.10
2019-05-03T05:45:24.645Z,93.10
2019-05-03T05:47:55.829Z,94.10
2019-05-03T05:50:26.925Z,93.50
2019-05-03T05:52:56.453Z,94.00
2019-05-03T05:55:46.055Z,93.20
2019-05-03T05:58:20.205Z,93.10
2019-05-03T06:03:51.969Z,93.80
2019-05-03T06:06:24.407Z,93.80
2019-05-03T06:08:56.038Z,93.00
2019-05-03T06:11:27.117Z,90.40
2019-05-03T06:13:58.564Z,87.50
2019-05-03T06:16:32.599Z,86.60
2019-05-03T06:19:04.632Z,85.60
2019-05-03T06:21:41.484Z,84.20
2019-05-03T06:24:19.564Z,82.90
2019-05-03T06:26:54.624Z,83.70
2019-05-03T06:29:24.787Z,87.00
2019-05-03T06:31:58.552Z,90.10
2019-05-03T06:34:28.301Z,89.50
2019-05-03T06:37:02.064Z,87.50
2019-05-03T06:39:31.625Z,89.30
2019-05-03T06:42:01.078Z,90.00
2019-05-03T06:44:30.532Z,88.50
2019-05-03T06:47:05.604Z,90.00
2019-05-03T06:49:34.449Z,90.20
2019-05-03T06:52:05.870Z,91.10
2019-05-03T06:54:37.857Z,90.00
2019-05-03T06:57:09.602Z,88.70
2019-05-03T06:59:55.030Z,88.90
2019-05-03T07:02:29.989Z,88.40
2019-05-03T07:05:01.097Z,89.40
2019-05-03T07:07:33.042Z,88.60
2019-05-03T07:10:09.996Z,89.60
2019-05-03T07:12:57.874Z,89.90
2019-05-03T07:15:27.744Z,90.10
2019-05-03T07:17:57.206Z,90.20
2019-05-03T07:20:27.516Z,88.90
2019-05-03T07:22:56.980Z,90.50
2019-05-03T07:25:27.403Z,87.80
2019-05-03T07:27:57.167Z,86.10
2019-05-03T07:30:26.621Z,87.30
2019-05-03T07:32:58.039Z,85.00
2019-05-03T07:35:27.501Z,85.40
2019-05-03T07:37:56.941Z,85.20
2019-05-03T07:40:26.408Z,85.30
2019-05-03T07:42:55.861Z,83.50
2019-05-03T07:45:25.625Z,83.10
2019-05-03T07:47:56.003Z,84.70
2019-05-03T07:50:26.606Z,84.90
2019-05-03T07:52:56.066Z,84.60
2019-05-03T07:55:45.532Z,86.10
2019-05-03T07:58:16.125Z,86.80
2019-05-03T08:00:45.652Z,85.00
2019-05-03T08:03:15.578Z,84.70
2019-05-03T08:05:45.562Z,85.60
2019-05-03T08:08:15.174Z,87.10
2019-05-03T08:10:45.725Z,84.80
2019-05-03T08:13:15.328Z,83.70
2019-05-03T08:15:45.282Z,84.30
2019-05-03T08:18:15.908Z,82.80
2019-05-03T08:20:46.418Z,83.30
2019-05-03T08:23:26.749Z,82.20
2019-05-03T08:25:50.594Z,81.90
2019-05-03T08:28:19.331Z,81.30
2019-05-03T08:31:07.629Z,83.40
2019-05-03T08:33:47.764Z,84.30
2019-05-03T08:36:17.209Z,84.30
2019-05-03T08:38:47.347Z,84.40
2019-05-03T08:41:20.833Z,86.70
2019-05-03T08:43:51.204Z,85.80
2019-05-03T08:46:20.684Z,86.90
2019-05-03T08:48:50.143Z,88.20
2019-05-03T08:51:19.607Z,89.60
2019-05-03T08:53:49.733Z,89.40
2019-05-03T08:56:19.222Z,90.20
2019-05-03T08:58:48.657Z,87.70
2019-05-03T09:01:19.137Z,90.10
2019-05-03T09:03:48.613Z,89.30
2019-05-03T09:06:18.405Z,88.40
2019-05-03T09:08:48.682Z,89.50
2019-05-03T09:11:30.750Z,87.70
2019-05-03T09:14:07.781Z,86.60
2019-05-03T09:16:37.240Z,88.90
2019-05-03T09:19:06.696Z,84.10
2019-05-03T09:21:37.131Z,80.20
2019-05-03T09:24:06.571Z,78.10
2019-05-03T09:26:36.071Z,79.60
2019-05-03T09:29:05.729Z,78.70
2019-05-03T09:31:35.380Z,79.80
2019-05-03T09:34:08.013Z,75.80
2019-05-03T09:36:36.749Z,79.40
2019-05-03T09:39:08.185Z,75.70
2019-05-03T09:41:37.641Z,75.80
2019-05-03T09:44:08.644Z,73.60
2019-05-03T09:46:38.098Z,71.00
2019-05-03T09:49:12.803Z,72.30
2019-05-03T09:51:40.281Z,75.80
2019-05-03T09:54:14.981Z,74.00
2019-05-03T09:56:58.549Z,68.30
2019-05-03T09:59:29.603Z,68.40
2019-05-03T10:01:59.720Z,72.50
2019-05-03T10:04:29.555Z,69.90
2019-05-03T10:06:59.090Z,70.20
2019-05-03T10:09:28.891Z,73.60
2019-05-03T10:11:58.349Z,69.20
2019-05-03T10:14:28.183Z,73.70
2019-05-03T10:17:08.714Z,71.00
2019-05-03T10:19:40.434Z,72.30
2019-05-03T10:22:09.682Z,74.20
2019-05-03T10:24:39.936Z,74.80
2019-05-03T10:27:10.049Z,74.80
2019-05-03T10:29:39.512Z,76.80
2019-05-03T10:32:15.139Z,76.70
2019-05-03T10:34:55.186Z,77.00
2019-05-03T10:37:30.014Z,73.80
2019-05-03T10:40:07.469Z,70.60
2019-05-03T10:42:35.800Z,60.20
2019-05-03T10:45:07.349Z,59.50
2019-05-03T10:47:37.155Z,61.50
2019-05-03T10:50:07.794Z,65.90
2019-05-03T10:52:39.110Z,69.00
2019-05-03T10:55:08.978Z,70.90
2019-05-03T10:57:40.283Z,68.20
2019-05-03T11:00:40.896Z,71.20
2019-05-03T11:02:48.301Z,73.70
2019-05-03T11:05:18.021Z,75.80
2019-05-03T11:07:47.768Z,80.90
2019-05-03T11:10:17.926Z,82.90
2019-05-03T11:12:47.695Z,84.90
2019-05-03T11:15:17.662Z,85.40
2019-05-03T11:17:47.409Z,87.90
2019-05-03T11:20:28.410Z,88.70
2019-05-03T11:22:52.007Z,88.90
2019-05-03T11:25:41.039Z,89.80
2019-05-03T11:28:12.408Z,88.90
2019-05-03T11:30:52.356Z,90.00
2019-05-03T11:36:14.981Z,90.10
2019-05-03T11:38:45.772Z,90.20
2019-05-03T11:41:28.827Z,89.30
2019-05-03T11:43:46.999Z,89.80
2019-05-03T11:46:17.187Z,88.90
2019-05-03T11:48:47.103Z,90.60
2019-05-03T11:51:17.203Z,89.60
2019-05-03T11:53:46.916Z,89.20
2019-05-03T11:56:16.805Z,90.00
2019-05-03T11:58:46.548Z,90.50
2019-05-03T12:01:20.083Z,91.20
2019-05-03T12:03:49.255Z,91.10
2019-05-03T12:06:19.078Z,91.50
2019-05-03T12:08:48.799Z,91.60
2019-05-03T12:11:18.537Z,92.00
2019-05-03T12:14:01.447Z,92.10
2019-05-03T12:16:32.119Z,93.30
2019-05-03T12:18:54.087Z,92.50
2019-05-03T12:21:25.673Z,92.30
2019-05-03T12:23:56.497Z,91.50
2019-05-03T12:26:40.327Z,91.40
2019-05-03T12:28:57.758Z,91.20
2019-05-03T12:31:36.547Z,90.80
2019-05-03T12:33:58.874Z,88.00
2019-05-03T12:36:28.610Z,88.70
2019-05-03T12:38:58.391Z,89.30
2019-05-03T12:41:28.199Z,87.90
2019-05-03T12:43:57.885Z,86.90
2019-05-03T12:46:27.630Z,85.50
2019-05-03T12:48:57.380Z,86.80
2019-05-03T12:51:28.107Z,88.10
2019-05-03T12:53:58.031Z,88.40
2019-05-03T12:56:32.794Z,87.40
2019-05-03T12:59:01.566Z,89.00
2019-05-03T13:01:49.571Z,90.40
2019-05-03T13:04:27.141Z,90.30
2019-05-03T13:07:01.308Z,91.00
2019-05-03T13:09:31.051Z,91.70
2019-05-03T13:12:00.804Z,92.50
2019-05-03T13:14:30.554Z,92.90
2019-05-03T13:17:00.299Z,92.60
2019-05-03T13:19:30.032Z,93.40
2019-05-03T13:21:59.771Z,92.60
2019-05-03T13:24:29.532Z,92.50
2019-05-03T13:27:00.348Z,93.00
2019-05-03T13:29:30.081Z,92.80
2019-05-03T13:32:02.162Z,93.20
2019-05-03T13:34:31.198Z,92.10
2019-05-03T13:37:00.953Z,92.50
2019-05-03T13:39:30.678Z,93.10
2019-05-03T13:42:00.464Z,92.70
2019-05-03T13:44:30.213Z,92.00
2019-05-03T13:46:59.949Z,91.10
2019-05-03T13:49:29.681Z,91.30
2019-05-03T13:51:59.424Z,92.30
2019-05-03T13:54:29.191Z,91.10
2019-05-03T13:56:58.932Z,91.40
2019-05-03T13:59:28.703Z,91.50
2019-05-03T14:02:11.489Z,90.80
2019-05-03T14:04:29.847Z,90.80
2019-05-03T14:06:59.592Z,90.10
2019-05-03T14:09:29.354Z,89.90
2019-05-03T14:11:59.095Z,90.80
2019-05-03T14:14:30.406Z,89.60
2019-05-03T14:17:00.191Z,89.30
2019-05-03T14:19:37.348Z,88.20
2019-05-03T14:22:08.708Z,88.20
2019-05-03T14:24:38.457Z,88.60
2019-05-03T14:27:09.302Z,87.80
2019-05-03T14:29:39.056Z,87.30
2019-05-03T14:32:08.805Z,82.70
2019-05-03T14:34:38.556Z,81.80
2019-05-03T14:37:08.293Z,81.40
2019-05-03T14:39:38.059Z,79.30
2019-05-03T14:42:07.794Z,81.50
2019-05-03T14:44:37.537Z,81.40
2019-05-03T14:47:08.293Z,82.60
2019-05-03T14:49:38.660Z,80.80
2019-05-03T14:52:08.415Z,85.40
2019-05-03T14:54:58.993Z,84.20
2019-05-03T14:57:35.118Z,82.20
2019-05-03T15:00:27.075Z,80.30
2019-05-03T15:03:01.359Z,82.50
2019-05-03T15:05:31.488Z,82.30
2019-05-03T15:08:01.267Z,78.40
2019-05-03T15:10:30.992Z,81.90
2019-05-03T15:13:00.764Z,79.50
2019-05-03T15:15:30.527Z,77.30
2019-05-03T15:18:00.350Z,77.30
2019-05-03T15:20:30.143Z,78.10
2019-05-03T15:22:59.886Z,81.50
2019-05-03T15:25:29.613Z,81.50
2019-05-03T15:27:59.354Z,81.90
2019-05-03T15:30:29.092Z,81.90
2019-05-03T15:33:00.857Z,85.20
2019-05-03T15:35:30.205Z,83.90
2019-05-03T15:38:00.139Z,85.70
2019-05-03T15:40:29.888Z,85.60
2019-05-03T15:43:01.246Z,85.40
2019-05-03T15:45:49.033Z,86.80
2019-05-03T15:48:20.383Z,86.10
2019-05-03T15:50:50.176Z,85.20
2019-05-03T15:53:19.908Z,85.80
2019-05-03T15:55:49.661Z,85.40
2019-05-03T15:58:19.404Z,86.70
2019-05-03T16:00:50.368Z,86.80
2019-05-03T16:03:20.111Z,86.10
2019-05-03T16:05:49.864Z,87.20
2019-05-03T16:08:19.711Z,87.30
2019-05-03T16:10:49.444Z,87.50
2019-05-03T16:13:19.248Z,87.30
2019-05-03T16:15:48.968Z,88.10
2019-05-03T16:18:18.731Z,88.80
2019-05-03T16:20:48.620Z,89.60
2019-05-03T16:23:18.359Z,89.70
2019-05-03T16:25:48.123Z,89.40
2019-05-03T16:28:20.465Z,90.40
2019-05-03T16:30:52.813Z,90.20
2019-05-03T16:33:27.560Z,90.50
2019-05-03T16:35:54.869Z,90.10
2019-05-03T16:38:24.964Z,90.50
2019-05-03T16:40:54.867Z,90.80
2019-05-03T16:43:25.656Z,91.10
2019-05-03T16:45:55.887Z,91.20
2019-05-03T16:48:25.613Z,91.90
2019-05-03T16:50:55.519Z,91.50
2019-05-03T16:53:25.567Z,91.50
2019-05-03T16:55:55.732Z,91.80
2019-05-03T16:58:25.487Z,91.80
2019-05-03T17:00:55.402Z,91.90
2019-05-03T17:03:38.145Z,92.00
2019-05-03T17:05:59.683Z,92.20
2019-05-03T17:08:34.669Z,92.20
2019-05-03T17:11:06.169Z,92.40
2019-05-03T17:13:35.896Z,92.20
2019-05-03T17:16:06.857Z,92.60
2019-05-03T17:18:36.764Z,92.80
2019-05-03T17:21:07.095Z,92.70
2019-05-03T17:23:36.845Z,92.90
2019-05-03T17:26:06.613Z,92.90
2019-05-03T17:28:42.128Z,93.00
2019-05-03T17:31:12.180Z,93.30
2019-05-03T17:33:51.488Z,93.40
2019-05-03T17:36:13.403Z,93.70
2019-05-03T17:38:44.372Z,93.40
2019-05-03T17:41:20.008Z,93.80
2019-05-03T17:43:51.320Z,94.10
2019-05-03T17:46:21.095Z,94.10
2019-05-03T17:48:50.843Z,94.40
2019-05-03T17:51:38.492Z,94.50
2019-05-03T17:54:09.807Z,94.30
2019-05-03T17:56:57.677Z,94.40
2019-05-03T17:59:31.699Z,94.90
2019-05-03T18:02:15.468Z,94.50
2019-05-03T18:04:47.795Z,94.70
2019-05-03T18:07:31.364Z,94.60
2019-05-03T18:10:04.667Z,94.40
2019-05-03T18:12:35.009Z,94.70
2019-05-03T18:15:07.040Z,94.80
2019-05-03T18:17:36.819Z,94.60
2019-05-03T18:20:06.962Z,94.90
2019-05-03T18:22:36.701Z,95.30
2019-05-03T18:25:06.811Z,95.40
2019-05-03T18:27:37.564Z,95.50
2019-05-03T18:30:08.258Z,95.40
2019-05-03T18:32:38.000Z,95.80
2019-05-03T18:35:07.772Z,95.70
2019-05-03T18:37:39.087Z,95.50
2019-05-03T18:40:09.776Z,95.60
2019-05-03T18:42:41.304Z,95.40
2019-05-03T18:45:15.780Z,95.50
2019-05-03T18:47:45.546Z,95.80
2019-05-03T18:50:15.476Z,95.70
2019-05-03T18:52:45.262Z,95.70
2019-05-03T18:55:14.998Z,95.90
2019-05-03T18:57:44.820Z,95.90
2019-05-03T19:00:17.046Z,95.90
2019-05-03T19:02:46.789Z,96.10
2019-05-03T19:05:19.023Z,96.10
2019-05-03T19:07:54.612Z,96.40
2019-05-03T19:13:26.280Z,96.70
2019-05-03T19:15:55.745Z,96.70
2019-05-03T19:18:27.060Z,96.80
2019-05-03T19:20:58.982Z,97.20
2019-05-03T19:23:28.712Z,97.50
2019-05-03T19:25:58.508Z,97.90
2019-05-03T19:28:28.244Z,98.20
2019-05-03T19:30:58.168Z,98.60
2019-05-03T19:33:28.262Z,98.50
2019-05-03T19:36:00.199Z,98.90
2019-05-03T19:38:29.377Z,99.30
2019-05-03T19:40:59.102Z,99.90
2019-05-03T19:43:28.897Z,99.90
2019-05-03T19:45:58.654Z,99.90
2019-05-03T19:48:28.466Z,99.80
2019-05-03T19:50:58.148Z,99.60
2019-05-03T19:53:29.547Z,99.60
2019-05-03T19:55:59.364Z,99.50
2019-05-03T19:58:29.424Z,99.60
2019-05-03T20:01:00.741Z,99.70
2019-05-03T20:03:35.305Z,99.50
2019-05-03T20:06:22.875Z,99.30
2019-05-03T20:08:54.195Z,99.30
2019-05-03T20:11:25.194Z,99.10
2019-05-03T20:13:55.274Z,98.90
2019-05-03T20:16:25.106Z,98.90
2019-05-03T20:18:55.538Z,98.80
2019-05-03T20:21:26.408Z,98.80
2019-05-03T20:23:56.159Z,98.60
2019-05-03T20:26:25.915Z,98.40
2019-05-03T20:28:55.668Z,98.20
2019-05-03T20:31:25.417Z,98.40
2019-05-03T20:33:55.209Z,98.40
2019-05-03T20:36:24.956Z,98.20
2019-05-03T20:38:55.036Z,98.10
2019-05-03T20:41:27.311Z,98.20
2019-05-03T20:44:17.067Z,98.10
2019-05-03T20:46:48.407Z,98.10
2019-05-03T20:49:18.136Z,98.10
2019-05-03T20:51:51.258Z,98.10
2019-05-03T20:54:19.241Z,98.00
2019-05-03T20:56:49.035Z,97.90
2019-05-03T20:59:18.786Z,98.00
2019-05-03T21:01:48.550Z,98.20
2019-05-03T21:04:18.309Z,98.00
2019-05-03T21:06:48.110Z,98.10
2019-05-03T21:09:17.962Z,98.10
2019-05-03T21:11:47.699Z,98.10
2019-05-03T21:14:17.459Z,98.30
2019-05-03T21:17:00.630Z,98.10
2019-05-03T21:19:41.852Z,98.10
2019-05-03T21:22:14.363Z,97.80
2019-05-03T21:24:48.496Z,97.80
2019-05-03T21:27:18.237Z,97.70
2019-05-03T21:29:49.559Z,97.50
2019-05-03T21:32:20.527Z,97.60
2019-05-03T21:34:50.274Z,97.70
2019-05-03T21:37:20.033Z,97.70
2019-05-03T21:39:50.289Z,97.80
2019-05-03T21:42:20.035Z,97.90
2019-05-03T21:44:49.900Z,98.00
2019-05-03T21:47:24.648Z,97.70
2019-05-03T21:49:55.977Z,97.90
2019-05-03T21:52:25.716Z,97.70
2019-05-03T21:54:57.151Z,97.50
2019-05-03T21:57:28.031Z,97.50
2019-05-03T21:59:57.797Z,97.50
2019-05-03T22:02:27.597Z,97.40
2019-05-03T22:04:57.321Z,97.50
2019-05-03T22:07:27.073Z,97.60
2019-05-03T22:09:56.838Z,98.10
2019-05-03T22:12:26.584Z,98.70
2019-05-03T22:15:00.647Z,98.80
2019-05-03T22:17:49.312Z,99.20
2019-05-03T22:20:36.454Z,98.90
2019-05-03T22:23:15.000Z,99.20
2019-05-03T22:25:45.194Z,99.30
2019-05-03T22:28:15.527Z,99.10
2019-05-03T22:30:45.421Z,98.90
2019-05-03T22:33:15.110Z,99.30
2019-05-03T22:35:44.919Z,99.40
2019-05-03T22:38:14.644Z,99.50
2019-05-03T22:40:46.751Z,99.90
2019-05-03T22:43:15.783Z,99.90
2019-05-03T22:45:45.677Z,99.90
2019-05-03T22:48:15.422Z,99.90
2019-05-03T22:50:46.407Z,99.90
2019-05-03T22:53:16.168Z,99.90
2019-05-03T22:55:45.932Z,99.90
2019-05-03T22:58:15.678Z,99.90
2019-05-03T23:00:45.440Z,99.90
2019-05-03T23:03:15.167Z,99.90
2019-05-03T23:05:45.562Z,99.90
2019-05-03T23:08:15.492Z,99.90
2019-05-03T23:10:45.235Z,99.90
2019-05-03T23:13:15.402Z,99.90
2019-05-03T23:15:45.201Z,99.90
2019-05-03T23:18:14.960Z,99.90
2019-05-03T23:20:49.277Z,99.90
2019-05-03T23:23:37.036Z,99.90
2019-05-03T23:26:07.102Z,99.90
2019-05-03T23:28:37.847Z,99.90
2019-05-03T23:31:07.658Z,99.90
2019-05-03T23:33:37.383Z,99.90
2019-05-03T23:36:07.145Z,99.90
2019-05-03T23:38:36.908Z,99.90
2019-05-03T23:41:07.641Z,99.90
2019-05-03T23:43:37.404Z,99.90
2019-05-03T23:46:08.538Z,99.90
2019-05-03T23:48:38.297Z,99.90
2019-05-03T23:51:09.607Z,99.90
2019-05-03T23:53:39.346Z,99.90
2019-05-03T23:56:15.020Z,99.90
2019-05-03T23:58:44.897Z,99.90
